FW4611 Weather Reports


Display with metric or nautical units.
time (UTC)temp
F
wind
direction
speed
MPH
gust
MPH
rain 1hr
in
rain 24hr
in
rain mn
in
humidity
%
barometer
mb
20200403071029 43 299 2.0 6.0 0.00 0.00 0.00 72 1015.1
20200403070025 42 274 2.0 6.0 0.00 0.00 0.00 72 1015.0
20200403065026 42 281 3.0 9.0 0.00 0.00 0.00 72 1015.0
20200403064018 42 276 3.0 8.0 0.00 0.00 0.00 73 1014.9
20200403063115 42 235 2.0 7.0 0.00 0.00 0.00 73 1014.8
20200403062111 42 282 2.0 6.0 0.00 0.00 0.00 74 1014.9
20200403061108 42 257 1.0 4.0 0.00 0.00 0.00 74 1014.7
20200403060104 42 247 1.0 3.0 0.00 0.00 0.00 74 1014.6
20200403055100 42 295 3.0 6.0 0.00 0.00 0.00 74 1014.6
20200403054057 42 279 2.0 6.0 0.00 0.00 0.00 74 1014.5
20200403053053 42 262 2.0 4.0 0.00 0.00 0.00 74 1014.6
20200403052054 42 292 1.0 4.0 0.00 0.00 0.00 74 1014.5
20200403051046 42 212 1.0 5.0 0.00 0.00 0.00 73 1014.6
20200403050042 42 261 1.0 5.0 0.00 0.00 0.00 73 1014.6
20200403045038 42 252 0.0 3.0 0.00 0.00 0.00 72 1014.4
20200403044035 42 210 2.0 6.0 0.00 0.00 0.00 71 1014.4
20200403043031 42 193 0.0 3.0 0.00 0.00 0.00 71 1014.2
20200403042027 42 260 2.0 5.0 0.00 0.00 0.00 71 1014.1
20200403041023 42 224 1.0 4.0 0.00 0.00 0.00 70 1014.1
20200403040019 42 271 2.0 5.0 0.00 0.00 0.00 70 1014.0
20200403035016 42 235 1.0 4.0 0.00 0.00 0.00 70 1014.1
20200403034113 42 260 2.0 6.0 0.00 0.00 0.00 70 1014.0
20200403033109 42 236 2.0 5.0 0.00 0.00 0.00 70 1014.0
20200403032106 42 294 2.0 5.0 0.00 0.00 0.00 71 1013.9
20200403031102 42 231 2.0 4.0 0.00 0.00 0.00 71 1013.8
20200403030058 41 303 3.0 7.0 0.00 0.00 0.00 71 1013.7
20200403025055 41 250 1.0 5.0 0.00 0.00 0.00 71 1013.7
20200403024051 41 187 1.0 3.0 0.00 0.00 0.00 71 1013.6
20200403023047 42 296 0.0 5.0 0.00 0.00 0.00 71 1013.8
20200403022044 42 255 1.0 3.0 0.00 0.00 0.00 71 1013.8
20200403021040 42 309 2.0 5.0 0.00 0.00 0.00 71 1013.8
20200403020036 42 271 3.0 6.0 0.00 0.00 0.00 70 1013.7
20200403015032 42 235 1.0 4.0 0.00 0.00 0.00 70 1013.9
20200403014029 42 0.0 1.0 0.00 0.00 0.00 69 1014.0
20200403013025 42 290 0.0 3.0 0.00 0.00 0.00 69 1013.9
20200403012022 42 286 0.0 2.0 0.00 0.00 0.00 69 1013.9
20200403011018 42 231 0.0 3.0 0.00 0.00 0.00 69 1013.9
20200403010115 42 225 1.0 3.0 0.00 0.00 0.00 69 1013.9
20200403005111 42 274 0.0 3.0 0.00 0.00 0.00 68 1013.9
20200403004107 42 315 1.0 4.0 0.00 0.00 0.00 68 1013.8
20200403003103 42 296 2.0 5.0 0.00 0.00 0.00 67 1013.6
20200403002059 42 320 3.0 6.0 0.00 0.00 0.00 67 1013.6
20200403001058 42 350 3.0 6.0 0.00 0.00 0.00 67 1013.6
20200403000052 43 302 3.0 6.0 0.00 0.00 0.00 67 1013.7
20200402235048 43 312 5.0 8.0 0.00 0.00 0.00 68 1013.6
20200402234044 42 297 4.0 12.0 0.00 0.00 0.00 69 1013.6
20200402233041 42 295 2.0 5.0 0.00 0.00 0.00 70 1013.7
20200402232037 42 254 1.0 4.0 0.00 0.00 0.00 69 1013.6
20200402231033 42 258 1.0 3.0 0.00 0.00 0.00 68 1013.5
20200402230029 43 218 0.0 3.0 0.00 0.00 0.00 67 1013.5
20200402225026 43 270 1.0 3.0 0.00 0.00 0.00 67 1013.5
20200402224022 43 239 2.0 5.0 0.00 0.00 0.00 67 1013.4
20200402223018 43 280 2.0 4.0 0.00 0.00 0.00 66 1013.5
20200402222115 44 240 1.0 6.0 0.00 0.00 0.00 65 1013.4
20200402221110 44 267 1.0 3.0 0.00 0.00 0.00 64 1013.3
20200402220107 44 225 0.0 3.0 0.00 0.00 0.00 63 1013.4
20200402215103 45 290 3.0 6.0 0.00 0.00 0.00 62 1013.3
20200402214059 45 312 4.0 11.0 0.00 0.00 0.00 61 1013.2
20200402213056 45 320 4.0 10.0 0.00 0.00 0.00 60 1013.1
20200402212052 45 277 4.0 8.0 0.00 0.00 0.00 59 1013.1
20200402211049 45 296 3.0 9.0 0.00 0.00 0.00 59 1013.3
20200402210046 45 295 5.0 10.0 0.00 0.00 0.00 59 1013.1
20200402205042 45 339 3.0 8.0 0.00 0.00 0.00 58 1013.1
20200402204038 46 308 5.0 11.0 0.00 0.00 0.00 58 1012.9
20200402203034 46 317 6.0 13.0 0.00 0.00 0.00 58 1012.9
20200402202031 46 321 6.0 15.0 0.00 0.00 0.00 59 1012.7
20200402201027 46 291 6.0 14.0 0.00 0.00 0.00 61 1012.7
20200402200024 46 290 3.0 8.0 0.00 0.00 0.00 61 1012.6
20200402195020 46 291 3.0 6.0 0.00 0.00 0.00 61 1012.4
20200402194016 46 273 5.0 16.0 0.00 0.00 0.00 62 1012.2
20200402193113 47 279 4.0 13.0 0.00 0.00 0.00 62 1012.1
20200402192109 47 192 6.0 14.0 0.00 0.00 0.00 61 1012.2
20200402191105 47 297 4.0 9.0 0.00 0.00 0.00 60 1012.1
20200402190101 48 301 5.0 10.0 0.00 0.00 0.00 57 1012.0
20200402185057 48 284 4.0 9.0 0.00 0.00 0.00 56 1011.9
20200402184054 48 303 6.0 14.0 0.00 0.00 0.00 56 1011.8
20200402183050 49 312 6.0 11.0 0.00 0.00 0.00 55 1012.0
20200402182046 50 241 6.0 13.0 0.00 0.00 0.00 54 1011.8
20200402181042 50 290 6.0 14.0 0.00 0.00 0.00 53 1011.8
20200402180038 51 282 5.0 10.0 0.00 0.00 0.00 53 1011.7
20200402175035 51 301 8.0 19.0 0.00 0.00 0.00 52 1011.5
20200402174032 51 278 7.0 15.0 0.00 0.00 0.00 53 1011.5
20200402173027 51 291 8.0 13.0 0.00 0.00 0.00 52 1011.3
20200402172023 51 269 5.0 17.0 0.00 0.00 0.00 53 1011.3
20200402171019 51 257 7.0 15.0 0.00 0.00 0.00 52 1011.4
20200402170016 52 295 6.0 16.0 0.00 0.00 0.00 52 1011.3
20200402165112 52 291 10.0 22.0 0.00 0.00 0.00 52 1011.2
20200402164108 51 293 10.0 19.0 0.00 0.00 0.00 53 1011.1
20200402163105 51 297 9.0 15.0 0.00 0.00 0.00 53 1011.1
20200402162100 52 292 12.0 23.0 0.00 0.00 0.00 53 1011.1
20200402161057 52 299 9.0 18.0 0.00 0.00 0.00 53 1010.9
20200402160053 52 290 9.0 19.0 0.00 0.00 0.00 52 1010.8
20200402155050 53 318 13.0 25.0 0.00 0.00 0.00 50 1010.8
20200402154047 54 254 12.0 26.0 0.00 0.00 0.00 49 1010.7
20200402153043 55 278 12.0 22.0 0.00 0.00 0.00 49 1010.6
20200402152039 54 289 9.0 16.0 0.00 0.00 0.00 49 1010.7
20200402151035 55 261 11.0 26.0 0.00 0.00 0.00 50 1011.0
20200402150032 54 290 10.0 21.0 0.00 0.00 0.00 48 1011.0
20200402145028 55 293 11.0 22.0 0.00 0.00 0.00 48 1011.0
20200402144024 55 293 9.0 16.0 0.00 0.00 0.00 48 1011.0
20200402143021 55 261 6.0 13.0 0.00 0.00 0.00 47 1010.9
20200402142017 54 331 5.0 11.0 0.00 0.00 0.00 49 1010.9
20200402141120 55 189 10.0 19.0 0.00 0.00 0.00 48 1010.8
20200402140110 55 274 6.0 14.0 0.00 0.00 0.00 47 1010.8
20200402135106 55 305 10.0 19.0 0.00 0.00 0.00 47 1010.8
20200402134102 56 300 9.0 25.0 0.00 0.00 0.00 47 1010.6
20200402133059 57 311 14.0 28.0 0.00 0.00 0.00 47 1010.2
20200402132054 57 315 9.0 21.0 0.00 0.00 0.00 46 1010.0
20200402131051 56 303 9.0 23.0 0.00 0.00 0.00 49 1010.2
20200402130047 56 306 10.0 20.0 0.00 0.00 0.00 52 1010.2
20200402125044 55 249 8.0 18.0 0.00 0.00 0.00 53 1010.0
20200402124040 55 328 12.0 25.0 0.00 0.00 0.00 54 1010.1
20200402123036 55 319 7.0 13.0 0.00 0.00 0.00 57 1010.3
20200402122032 55 330 9.0 22.0 0.00 0.00 0.00 61 1010.2
20200402121029 54 291 10.0 20.0 0.00 0.00 0.00 66 1010.1
20200402120026 53 260 8.0 15.0 0.00 0.00 0.00 69 1010.0
20200402115022 52 335 9.0 15.0 0.00 0.00 0.00 69 1010.2
20200402114019 52 206 9.0 19.0 0.00 0.00 0.00 70 1010.3
20200402113115 52 303 9.0 20.0 0.00 0.00 0.00 70 1010.6
20200402112111 52 228 8.0 19.0 0.00 0.00 0.00 70 1010.6
20200402111108 52 250 8.0 14.0 0.00 0.00 0.00 70 1010.6
20200402110104 52 277 5.0 13.0 0.00 0.00 0.00 71 1010.7
20200402105100 51 289 7.0 17.0 0.00 0.00 0.00 72 1010.8
20200402104057 51 291 7.0 19.0 0.00 0.00 0.00 72 1011.0
20200402103053 51 305 6.0 12.0 0.00 0.00 0.00 74 1010.9
20200402102049 51 266 7.0 15.0 0.00 0.00 0.00 75 1011.0
20200402101045 50 302 8.0 19.0 0.00 0.00 0.00 75 1011.1
20200402100042 50 273 7.0 13.0 0.00 0.00 0.00 74 1011.3
20200402095038 50 256 5.0 12.0 0.00 0.00 0.00 73 1011.4
20200402094034 50 296 5.0 12.0 0.00 0.00 0.00 72 1011.4
20200402093031 51 294 7.0 18.0 0.00 0.00 0.00 70 1011.3
20200402091023 51 291 9.0 15.0 0.00 0.00 0.00 70 1011.3
20200402090020 50 259 9.0 25.0 0.00 0.00 0.00 71 1011.2
20200402085017 50 297 4.0 15.0 0.00 0.00 0.00 70 1011.2
20200402084113 51 43 5.0 15.0 0.00 0.00 0.00 70 1011.4
20200402083109 51 270 2.0 6.0 0.00 0.00 0.00 70 1011.7
20200402082105 50 248 7.0 15.0 0.00 0.00 0.00 72 1011.8
20200402081101 48 295 6.0 14.0 0.00 0.00 0.00 73 1011.6
20200402080058 48 270 7.0 15.0 0.00 0.00 0.00 73 1011.8
20200402075054 48 297 6.0 12.0 0.00 0.00 0.00 72 1012.0
20200402074050 47 308 3.0 6.0 0.00 0.00 0.00 73 1012.3
20200402073048 47 315 4.0 9.0 0.00 0.01 0.00 73 1012.4
20200402072043 47 253 1.0 3.0 0.00 0.01 0.00 73 1012.4